createdAt,value
2023-09-21T00:01:04.399Z,93194.13
2023-09-21T00:03:32.347Z,93190.00
2023-09-21T00:06:00.184Z,93186.94
2023-09-21T00:08:27.930Z,93186.34
2023-09-21T00:10:55.746Z,93180.53
2023-09-21T00:13:33.613Z,93187.16
2023-09-21T00:16:01.835Z,93176.25
2023-09-21T00:18:30.894Z,93177.13
2023-09-21T00:21:02.047Z,93166.09
2023-09-21T00:23:32.584Z,93174.50
2023-09-21T00:26:00.257Z,93177.25
2023-09-21T00:28:29.412Z,93165.00
2023-09-21T00:30:59.861Z,93160.72
2023-09-21T00:33:28.419Z,93162.22
2023-09-21T00:35:56.469Z,93161.78
2023-09-21T00:38:25.257Z,93158.41
2023-09-21T00:40:57.790Z,93148.75
2023-09-21T00:43:26.208Z,93154.31
2023-09-21T00:45:55.273Z,93144.66
2023-09-21T00:48:27.956Z,93140.09
2023-09-21T00:50:56.149Z,93143.59
2023-09-21T00:53:29.441Z,93136.03
2023-09-21T00:55:59.978Z,93142.13
2023-09-21T00:58:27.887Z,93133.09
2023-09-21T01:00:56.876Z,93137.50
2023-09-21T01:03:29.313Z,93137.94
2023-09-21T01:05:56.902Z,93123.56
2023-09-21T01:08:30.153Z,93128.97
2023-09-21T01:10:57.540Z,93120.09
2023-09-21T01:13:27.320Z,93120.72
2023-09-21T01:16:12.480Z,93116.22
2023-09-21T01:18:42.408Z,93122.47
2023-09-21T01:21:15.080Z,93107.59
2023-09-21T01:23:43.835Z,93113.44
2023-09-21T01:26:11.531Z,93107.47
2023-09-21T01:28:38.336Z,93103.97
2023-09-21T01:31:06.984Z,93105.47
2023-09-21T01:33:36.966Z,93097.69
2023-09-21T01:36:05.714Z,93101.38
2023-09-21T01:38:32.457Z,93098.94
2023-09-21T01:41:00.765Z,93096.63
2023-09-21T01:43:27.917Z,93096.81
2023-09-21T01:45:55.457Z,93091.59
2023-09-21T01:48:22.353Z,93084.72
2023-09-21T01:50:52.056Z,93082.53
2023-09-21T01:53:20.886Z,93075.16
2023-09-21T01:55:50.536Z,93079.78
2023-09-21T01:58:20.157Z,93073.66
2023-09-21T02:00:49.003Z,93073.06
2023-09-21T02:03:29.696Z,93065.41
2023-09-21T02:06:00.066Z,93069.84
2023-09-21T02:08:27.254Z,93064.19
2023-09-21T02:10:54.142Z,93057.13
2023-09-21T02:13:21.741Z,93049.16
2023-09-21T02:15:52.345Z,93056.09
2023-09-21T02:18:19.322Z,93053.66
2023-09-21T02:20:46.448Z,93054.72
2023-09-21T02:23:14.072Z,93050.72
2023-09-21T02:25:42.209Z,93048.25
2023-09-21T02:28:15.659Z,93036.88
2023-09-21T02:30:47.532Z,93043.19
2023-09-21T02:33:17.377Z,93039.50
2023-09-21T02:35:46.042Z,93033.38
2023-09-21T02:38:13.502Z,93025.09
2023-09-21T02:40:41.789Z,93020.81
2023-09-21T02:43:11.029Z,93020.81
2023-09-21T02:45:38.314Z,93022.19
2023-09-21T02:48:06.833Z,93013.34
2023-09-21T02:50:35.209Z,93019.31
2023-09-21T02:53:07.831Z,93019.16
2023-09-21T02:55:36.746Z,93025.13
2023-09-21T02:58:12.095Z,93022.66
2023-09-21T03:00:46.806Z,93013.75
2023-09-21T03:03:16.901Z,93032.75
2023-09-21T03:05:47.531Z,93018.97
2023-09-21T03:08:15.970Z,93007.81
2023-09-21T03:10:46.766Z,93011.94
2023-09-21T03:13:20.782Z,93005.06
2023-09-21T03:15:51.784Z,93009.34
2023-09-21T03:18:20.626Z,93008.13
2023-09-21T03:20:49.462Z,93006.59
2023-09-21T03:23:17.008Z,93014.47
2023-09-21T03:25:46.510Z,93009.81
2023-09-21T03:28:15.146Z,92999.44
2023-09-21T03:30:45.851Z,93000.44
2023-09-21T03:33:13.711Z,92998.91
2023-09-21T03:35:40.567Z,92992.63
2023-09-21T03:38:12.131Z,92990.63
2023-09-21T03:40:39.754Z,92988.19
2023-09-21T03:43:08.059Z,92986.34
2023-09-21T03:45:35.319Z,92988.97
2023-09-21T03:48:05.631Z,92987.56
2023-09-21T03:50:32.993Z,92988.03
2023-09-21T03:53:06.468Z,92986.19
2023-09-21T03:55:34.116Z,92984.50
2023-09-21T03:58:01.608Z,92988.03
2023-09-21T04:00:32.906Z,92986.66
2023-09-21T04:03:08.376Z,92977.78
2023-09-21T04:05:37.136Z,92979.28
2023-09-21T04:08:05.239Z,92982.16
2023-09-21T04:10:32.852Z,92981.75
2023-09-21T04:12:59.638Z,92973.00
2023-09-21T04:15:31.119Z,92971.00
2023-09-21T04:18:03.361Z,92979.63
2023-09-21T04:20:36.366Z,92967.66
2023-09-21T04:23:04.227Z,92969.50
2023-09-21T04:25:31.209Z,92972.41
2023-09-21T04:27:58.078Z,92967.97
2023-09-21T04:30:25.499Z,92968.44
2023-09-21T04:32:54.484Z,92968.75
2023-09-21T04:35:21.992Z,92967.06
2023-09-21T04:37:52.243Z,92959.97
2023-09-21T04:40:19.780Z,92964.69
2023-09-21T04:42:48.611Z,92968.88
2023-09-21T04:45:17.941Z,92960.75
2023-09-21T04:47:47.678Z,92963.06
2023-09-21T04:50:23.868Z,92962.00
2023-09-21T04:52:50.949Z,92952.97
2023-09-21T04:55:18.371Z,92952.50
2023-09-21T04:57:46.133Z,92951.13
2023-09-21T05:00:15.456Z,92955.28
2023-09-21T05:02:43.781Z,92951.13
2023-09-21T05:05:12.116Z,92953.28
2023-09-21T05:07:39.059Z,92948.84
2023-09-21T05:10:08.334Z,92953.44
2023-09-21T05:12:36.095Z,92952.66
2023-09-21T05:15:08.044Z,92951.59
2023-09-21T05:17:37.829Z,92950.84
2023-09-21T05:20:08.039Z,92945.47
2023-09-21T05:22:35.410Z,92948.81
2023-09-21T05:25:04.656Z,92942.09
2023-09-21T05:27:32.677Z,92938.25
2023-09-21T05:30:03.009Z,92934.59
2023-09-21T05:32:38.161Z,92942.25
2023-09-21T05:35:06.525Z,92937.34
2023-09-21T05:37:36.013Z,92943.91
2023-09-21T05:40:07.512Z,92936.75
2023-09-21T05:42:35.288Z,92935.78
2023-09-21T05:45:02.297Z,92931.53
2023-09-21T05:47:29.271Z,92927.69
2023-09-21T05:49:56.139Z,92929.69
2023-09-21T05:52:23.308Z,92928.00
2023-09-21T05:54:50.091Z,92919.72
2023-09-21T05:57:17.284Z,92920.47
2023-09-21T05:59:45.740Z,92919.56
2023-09-21T06:02:15.202Z,92910.69
2023-09-21T06:04:44.764Z,92911.25
2023-09-21T06:07:12.037Z,92917.25
2023-09-21T06:09:38.752Z,92924.16
2023-09-21T06:12:09.118Z,92918.03
2023-09-21T06:14:39.107Z,92916.06
2023-09-21T06:17:11.577Z,92926.03
2023-09-21T06:19:40.832Z,92925.25
2023-09-21T06:22:07.544Z,92922.03
2023-09-21T06:24:34.351Z,92918.97
2023-09-21T06:27:01.069Z,92925.22
2023-09-21T06:29:27.799Z,92927.16
2023-09-21T06:34:26.136Z,92925.75
2023-09-21T06:36:54.237Z,92911.13
2023-09-21T06:39:22.620Z,92910.84
2023-09-21T06:41:49.859Z,92908.50
2023-09-21T06:44:16.664Z,92915.09
2023-09-21T06:46:43.349Z,92907.63
2023-09-21T06:49:11.548Z,92915.63
2023-09-21T06:51:38.468Z,92907.59
2023-09-21T06:54:05.302Z,92912.69
2023-09-21T06:56:32.665Z,92912.97
2023-09-21T06:58:59.526Z,92903.81
2023-09-21T07:01:28.803Z,92911.31
2023-09-21T07:03:55.742Z,92908.50
2023-09-21T07:06:22.755Z,92910.41
2023-09-21T07:08:50.840Z,92903.97
2023-09-21T07:11:20.678Z,92902.53
2023-09-21T07:13:48.421Z,92897.47
2023-09-21T07:16:15.923Z,92887.09
2023-09-21T07:18:45.408Z,92892.44
2023-09-21T07:21:12.615Z,92882.19
2023-09-21T07:23:41.086Z,92878.25
2023-09-21T07:26:09.434Z,92891.09
2023-09-21T07:28:36.165Z,92888.22
2023-09-21T07:31:04.548Z,92871.09
2023-09-21T07:33:31.775Z,92857.72
2023-09-21T07:35:59.020Z,92848.16
2023-09-21T07:38:25.890Z,92846.06
2023-09-21T07:40:52.675Z,92838.78
2023-09-21T07:43:19.350Z,92847.81
2023-09-21T07:45:50.371Z,92844.91
2023-09-21T07:48:17.775Z,92821.50
2023-09-21T07:50:45.662Z,92832.50
2023-09-21T07:53:12.458Z,92831.34
2023-09-21T07:55:39.173Z,92832.16
2023-09-21T07:58:06.504Z,92825.88
2023-09-21T08:00:33.551Z,92821.22
2023-09-21T08:03:00.612Z,92825.44
2023-09-21T08:05:28.140Z,92822.09
2023-09-21T08:07:55.001Z,92825.56
2023-09-21T08:10:22.078Z,92826.28
2023-09-21T08:12:49.289Z,92826.81
2023-09-21T08:15:16.405Z,92827.97
2023-09-21T08:17:43.604Z,92824.50
2023-09-21T08:20:11.144Z,92819.78
2023-09-21T08:22:38.670Z,92824.69
2023-09-21T08:25:07.803Z,92819.38
2023-09-21T08:27:35.147Z,92828.28
2023-09-21T08:30:05.272Z,92829.00
2023-09-21T08:32:33.095Z,92836.03
2023-09-21T08:35:00.159Z,92835.72
2023-09-21T08:37:26.933Z,92837.41
2023-09-21T08:39:53.969Z,92833.59
2023-09-21T08:42:20.940Z,92826.72
2023-09-21T08:44:48.860Z,92833.44
2023-09-21T08:47:33.428Z,92827.69
2023-09-21T08:50:04.348Z,92825.19
2023-09-21T08:52:35.287Z,92806.53
2023-09-21T08:55:02.426Z,92818.47
2023-09-21T08:57:29.935Z,92809.78
2023-09-21T08:59:59.706Z,92809.75
2023-09-21T09:02:26.518Z,92804.38
2023-09-21T09:04:53.849Z,92803.84
2023-09-21T09:07:20.619Z,92794.84
2023-09-21T09:09:47.754Z,92787.44
2023-09-21T09:12:25.480Z,92779.75
2023-09-21T09:14:54.736Z,92784.06
2023-09-21T09:17:21.522Z,92781.72
2023-09-21T09:19:48.396Z,92770.06
2023-09-21T09:22:18.002Z,92774.72
2023-09-21T09:24:51.491Z,92773.91
2023-09-21T09:27:18.966Z,92776.59
2023-09-21T09:29:51.317Z,92767.63
2023-09-21T09:32:19.851Z,92767.16
2023-09-21T09:34:47.625Z,92778.63
2023-09-21T09:37:18.128Z,92777.09
2023-09-21T09:39:45.888Z,92770.91
2023-09-21T09:42:16.563Z,92776.72
2023-09-21T09:44:49.269Z,92764.97
2023-09-21T09:47:19.946Z,92758.91
2023-09-21T09:49:50.385Z,92757.91
2023-09-21T09:52:19.933Z,92760.03
2023-09-21T09:54:49.392Z,92742.53
2023-09-21T09:57:17.744Z,92744.22
2023-09-21T09:59:46.096Z,92746.50
2023-09-21T10:02:15.677Z,92749.44
2023-09-21T10:04:44.309Z,92741.81
2023-09-21T10:07:12.104Z,92744.00
2023-09-21T10:09:38.847Z,92749.78
2023-09-21T10:12:06.628Z,92744.09
2023-09-21T10:14:38.271Z,92738.28
2023-09-21T10:17:06.335Z,92740.59
2023-09-21T10:19:39.601Z,92735.81
2023-09-21T10:22:31.468Z,92735.03
2023-09-21T10:25:01.069Z,92721.47
2023-09-21T10:27:28.753Z,92717.03
2023-09-21T10:30:10.156Z,92724.78
2023-09-21T10:32:45.352Z,92711.06
2023-09-21T10:35:22.895Z,92707.91
2023-09-21T10:37:52.831Z,92702.03
2023-09-21T10:40:23.902Z,92695.56
2023-09-21T10:42:50.847Z,92699.53
2023-09-21T10:45:17.770Z,92691.69
2023-09-21T10:47:53.461Z,92689.66
2023-09-21T10:50:25.171Z,92693.38
2023-09-21T10:52:53.613Z,92684.41
2023-09-21T10:55:22.549Z,92691.91
2023-09-21T10:57:54.759Z,92684.72
2023-09-21T11:00:22.238Z,92677.06
2023-09-21T11:02:51.270Z,92664.44
2023-09-21T11:05:20.368Z,92668.91
2023-09-21T11:07:49.325Z,92666.00
2023-09-21T11:10:17.690Z,92651.22
2023-09-21T11:12:46.318Z,92647.03
2023-09-21T11:15:15.421Z,92643.94
2023-09-21T11:17:44.177Z,92635.28
2023-09-21T11:20:19.427Z,92634.63
2023-09-21T11:22:49.003Z,92637.13
2023-09-21T11:25:21.400Z,92624.13
2023-09-21T11:27:49.764Z,92627.09
2023-09-21T11:30:17.522Z,92627.06
2023-09-21T11:32:49.105Z,92622.59
2023-09-21T11:35:17.553Z,92626.31
2023-09-21T11:37:45.090Z,92623.94
2023-09-21T11:40:14.409Z,92617.16
2023-09-21T11:42:45.365Z,92611.38
2023-09-21T11:45:17.510Z,92617.97
2023-09-21T11:47:48.915Z,92618.44
2023-09-21T11:50:35.511Z,92617.78
2023-09-21T11:53:08.146Z,92611.31
2023-09-21T11:55:37.906Z,92604.53
2023-09-21T11:58:14.965Z,92602.72
2023-09-21T12:00:52.740Z,92600.41
2023-09-21T12:03:25.619Z,92599.41
2023-09-21T12:05:57.835Z,92594.09
2023-09-21T12:08:26.632Z,92585.91
2023-09-21T12:10:54.149Z,92585.53
2023-09-21T12:13:21.769Z,92583.59
2023-09-21T12:15:50.260Z,92570.09
2023-09-21T12:18:20.710Z,92567.31
2023-09-21T12:20:58.490Z,92567.97
2023-09-21T12:23:26.680Z,92564.75
2023-09-21T12:25:54.733Z,92561.91
2023-09-21T12:28:21.431Z,92564.69
2023-09-21T12:30:49.829Z,92561.38
2023-09-21T12:35:46.767Z,92552.38
2023-09-21T12:38:13.606Z,92542.25
2023-09-21T12:40:40.783Z,92543.44
2023-09-21T12:43:09.685Z,92542.09
2023-09-21T12:45:38.666Z,92541.41
2023-09-21T12:48:08.760Z,92531.66
2023-09-21T12:50:36.043Z,92528.72
2023-09-21T12:53:07.327Z,92523.91
2023-09-21T12:55:37.716Z,92519.59
2023-09-21T12:58:07.844Z,92525.19
2023-09-21T13:00:34.816Z,92518.06
2023-09-21T13:03:04.284Z,92515.78
2023-09-21T13:05:31.544Z,92522.56
2023-09-21T13:07:58.255Z,92507.94
2023-09-21T13:10:25.656Z,92518.34
2023-09-21T13:12:52.924Z,92513.69
2023-09-21T13:15:19.834Z,92515.44
2023-09-21T13:17:46.596Z,92512.66
2023-09-21T13:20:18.675Z,92511.38
2023-09-21T13:22:48.139Z,92512.34
2023-09-21T13:25:15.139Z,92509.66
2023-09-21T13:27:41.972Z,92513.38
2023-09-21T13:30:09.476Z,92514.34
2023-09-21T13:32:36.755Z,92505.75
2023-09-21T13:35:05.008Z,92505.63
2023-09-21T13:37:32.594Z,92507.66
2023-09-21T13:40:00.330Z,92505.25
2023-09-21T13:42:30.478Z,92489.47
2023-09-21T13:44:58.159Z,92500.91
2023-09-21T13:47:26.560Z,92494.31
2023-09-21T13:49:53.527Z,92490.03
2023-09-21T13:52:20.515Z,92494.50
2023-09-21T13:54:50.258Z,92489.66
2023-09-21T13:57:19.294Z,92486.25
2023-09-21T13:59:46.194Z,92482.72
2023-09-21T14:02:15.828Z,92484.09
2023-09-21T14:04:43.007Z,92468.25
2023-09-21T14:07:09.960Z,92469.13
2023-09-21T14:09:36.772Z,92458.91
2023-09-21T14:12:05.339Z,92463.72
2023-09-21T14:14:32.194Z,92465.84
2023-09-21T14:16:58.904Z,92467.31
2023-09-21T14:19:25.562Z,92466.22
2023-09-21T14:21:53.383Z,92462.78
2023-09-21T14:24:21.834Z,92457.47
2023-09-21T14:26:49.041Z,92456.28
2023-09-21T14:29:16.353Z,92468.47
2023-09-21T14:31:44.306Z,92452.81
2023-09-21T14:34:11.125Z,92464.03
2023-09-21T14:36:39.769Z,92463.25
2023-09-21T14:39:09.282Z,92462.16
2023-09-21T14:41:36.055Z,92459.81
2023-09-21T14:44:02.729Z,92459.69
2023-09-21T14:46:29.491Z,92465.19
2023-09-21T14:48:56.337Z,92464.66
2023-09-21T14:51:23.232Z,92468.97
2023-09-21T14:53:52.785Z,92470.56
2023-09-21T14:56:19.509Z,92466.28
2023-09-21T14:58:46.226Z,92462.50
2023-09-21T15:01:13.170Z,92466.94
2023-09-21T15:03:40.087Z,92463.59
2023-09-21T15:06:08.218Z,92465.53
2023-09-21T15:08:35.071Z,92475.13
2023-09-21T15:11:01.903Z,92475.44
2023-09-21T15:13:28.554Z,92478.34
2023-09-21T15:15:57.102Z,92471.31
2023-09-21T15:18:25.944Z,92459.56
2023-09-21T15:20:52.778Z,92472.22
2023-09-21T15:23:20.967Z,92471.69
2023-09-21T15:25:48.473Z,92475.47
2023-09-21T15:28:15.530Z,92469.44
2023-09-21T15:30:42.508Z,92470.13
2023-09-21T15:33:23.098Z,92470.06
2023-09-21T15:35:55.972Z,92458.69
2023-09-21T15:38:22.828Z,92457.16
2023-09-21T15:40:49.523Z,92457.72
2023-09-21T15:43:16.625Z,92453.25
2023-09-21T15:45:43.466Z,92454.72
2023-09-21T15:48:10.600Z,92452.13
2023-09-21T15:50:39.196Z,92440.72
2023-09-21T15:53:06.697Z,92437.22
2023-09-21T15:55:33.468Z,92440.69
2023-09-21T15:58:00.985Z,92438.69
2023-09-21T16:00:28.121Z,92437.94
2023-09-21T16:02:55.167Z,92440.28
2023-09-21T16:05:22.826Z,92447.53
2023-09-21T16:07:49.694Z,92437.25
2023-09-21T16:10:16.579Z,92438.03
2023-09-21T16:12:43.355Z,92442.81
2023-09-21T16:15:10.551Z,92437.97
2023-09-21T16:17:37.711Z,92431.69
2023-09-21T16:20:07.046Z,92431.88
2023-09-21T16:22:34.153Z,92429.44
2023-09-21T16:25:01.054Z,92423.03
2023-09-21T16:27:27.826Z,92412.16
2023-09-21T16:29:54.582Z,92407.84
2023-09-21T16:32:22.842Z,92401.19
2023-09-21T16:34:49.532Z,92398.94
2023-09-21T16:37:16.301Z,92397.53
2023-09-21T16:39:42.995Z,92401.38
2023-09-21T16:42:09.810Z,92393.81
2023-09-21T16:44:36.604Z,92387.25
2023-09-21T16:47:03.790Z,92374.19
2023-09-21T16:49:30.888Z,92384.56
2023-09-21T16:51:59.294Z,92376.00
2023-09-21T16:54:26.051Z,92383.34
2023-09-21T16:56:53.091Z,92373.22
2023-09-21T16:59:21.240Z,92373.28
2023-09-21T17:01:49.155Z,92369.38
2023-09-21T17:04:16.084Z,92363.84
2023-09-21T17:06:44.109Z,92364.88
2023-09-21T17:09:11.063Z,92379.72
2023-09-21T17:11:38.017Z,92380.59
2023-09-21T17:14:04.947Z,92392.38
2023-09-21T17:16:32.005Z,92407.94
2023-09-21T17:19:04.128Z,92407.66
2023-09-21T17:21:31.940Z,92413.69
2023-09-21T17:23:58.738Z,92413.69
2023-09-21T17:26:25.926Z,92416.53
2023-09-21T17:28:52.796Z,92419.06
2023-09-21T17:31:21.359Z,92424.00
2023-09-21T17:33:48.345Z,92421.53
2023-09-21T17:36:16.936Z,92429.03
2023-09-21T17:38:44.517Z,92433.31
2023-09-21T17:41:11.861Z,92440.31
2023-09-21T17:43:38.772Z,92440.84
2023-09-21T17:46:05.734Z,92447.66
2023-09-21T17:48:32.717Z,92460.56
2023-09-21T17:51:07.014Z,92457.31
2023-09-21T17:53:35.016Z,92463.69
2023-09-21T17:56:01.773Z,92472.56
2023-09-21T17:58:28.499Z,92484.19
2023-09-21T18:00:55.651Z,92491.53
2023-09-21T18:03:22.757Z,92482.22
2023-09-21T18:05:49.553Z,92492.88
2023-09-21T18:08:16.313Z,92495.19
2023-09-21T18:10:43.052Z,92507.66
2023-09-21T18:13:09.769Z,92509.94
2023-09-21T18:15:36.657Z,92505.09
2023-09-21T18:18:04.795Z,92508.38
2023-09-21T18:20:31.966Z,92514.50
2023-09-21T18:22:59.295Z,92521.06
2023-09-21T18:25:27.211Z,92535.47
2023-09-21T18:27:55.744Z,92552.69
2023-09-21T18:30:23.013Z,92561.03
2023-09-21T18:32:50.168Z,92559.75
2023-09-21T18:35:19.980Z,92568.38
2023-09-21T18:37:48.861Z,92577.25
2023-09-21T18:40:15.869Z,92584.56
2023-09-21T18:42:43.070Z,92596.94
2023-09-21T18:45:11.907Z,92609.81
2023-09-21T18:47:38.797Z,92602.69
2023-09-21T18:50:08.576Z,92614.34
2023-09-21T18:52:37.047Z,92621.38
2023-09-21T18:55:06.121Z,92628.63
2023-09-21T18:57:32.923Z,92630.34
2023-09-21T19:00:00.043Z,92645.09
2023-09-21T19:02:27.433Z,92645.56
2023-09-21T19:04:54.199Z,92662.75
2023-09-21T19:07:20.960Z,92671.38
2023-09-21T19:09:48.708Z,92675.00
2023-09-21T19:12:15.644Z,92672.97
2023-09-21T19:14:43.256Z,92670.41
2023-09-21T19:17:10.153Z,92662.91
2023-09-21T19:19:38.124Z,92672.50
2023-09-21T19:22:07.980Z,92697.97
2023-09-21T19:24:35.624Z,92673.72
2023-09-21T19:27:02.823Z,92677.38
2023-09-21T19:29:29.641Z,92663.09
2023-09-21T19:31:56.476Z,92697.88
2023-09-21T19:34:23.234Z,92687.47
2023-09-21T19:36:50.082Z,92697.22
2023-09-21T19:39:17.815Z,92685.22
2023-09-21T19:41:45.253Z,92680.16
2023-09-21T19:44:12.805Z,92672.34
2023-09-21T19:46:40.346Z,92683.03
2023-09-21T19:49:07.189Z,92696.38
2023-09-21T19:51:34.140Z,92705.50
2023-09-21T19:54:01.152Z,92695.13
2023-09-21T19:56:28.363Z,92689.69
2023-09-21T19:58:56.592Z,92675.78
2023-09-21T20:01:23.483Z,92686.63
2023-09-21T20:03:50.651Z,92678.22
2023-09-21T20:06:17.744Z,92675.00
2023-09-21T20:08:45.603Z,92676.06
2023-09-21T20:11:12.915Z,92665.56
2023-09-21T20:13:39.926Z,92680.34
2023-09-21T20:16:06.745Z,92693.50
2023-09-21T20:18:33.884Z,92691.13
2023-09-21T20:21:00.665Z,92691.31
2023-09-21T20:23:28.051Z,92699.78
2023-09-21T20:25:55.771Z,92706.63
2023-09-21T20:28:25.726Z,92705.00
2023-09-21T20:30:54.047Z,92711.84
2023-09-21T20:33:22.008Z,92720.03
2023-09-21T20:35:49.476Z,92729.72
2023-09-21T20:38:16.418Z,92727.81
2023-09-21T20:40:44.921Z,92714.78
2023-09-21T20:43:12.155Z,92716.97
2023-09-21T20:45:39.170Z,92713.56
2023-09-21T20:48:06.999Z,92738.53
2023-09-21T20:50:33.790Z,92770.41
2023-09-21T20:53:00.743Z,92789.75
2023-09-21T20:55:27.524Z,92767.91
2023-09-21T20:57:54.422Z,92773.44
2023-09-21T21:00:23.615Z,92763.34
2023-09-21T21:02:50.805Z,92766.03
2023-09-21T21:05:17.600Z,92764.88
2023-09-21T21:07:44.600Z,92767.25
2023-09-21T21:10:12.029Z,92762.16
2023-09-21T21:12:39.603Z,92762.81
2023-09-21T21:15:06.829Z,92773.16
2023-09-21T21:17:33.964Z,92779.72
2023-09-21T21:20:01.273Z,92790.97
2023-09-21T21:22:28.119Z,92789.31
2023-09-21T21:24:55.737Z,92783.88
2023-09-21T21:27:26.662Z,92781.22
2023-09-21T21:29:53.530Z,92775.91
2023-09-21T21:32:22.127Z,92782.78
2023-09-21T21:34:49.683Z,92785.09
2023-09-21T21:37:16.519Z,92782.78
2023-09-21T21:39:43.532Z,92780.56
2023-09-21T21:42:11.209Z,92778.91
2023-09-21T21:44:38.535Z,92783.91
2023-09-21T21:47:06.115Z,92774.75
2023-09-21T21:49:33.022Z,92770.16
2023-09-21T21:52:01.997Z,92778.38
2023-09-21T21:54:29.662Z,92774.66
2023-09-21T21:56:56.554Z,92758.81
2023-09-21T21:59:23.291Z,92751.22
2023-09-21T22:01:50.029Z,92755.63
2023-09-21T22:04:16.934Z,92760.81
2023-09-21T22:06:43.774Z,92761.56
2023-09-21T22:09:10.625Z,92760.81
2023-09-21T22:11:37.404Z,92753.16
2023-09-21T22:14:04.230Z,92759.44
2023-09-21T22:16:31.170Z,92761.28
2023-09-21T22:18:58.110Z,92768.97
2023-09-21T22:21:24.952Z,92770.97
2023-09-21T22:23:53.805Z,92774.34
2023-09-21T22:26:20.545Z,92774.69
2023-09-21T22:28:47.412Z,92778.25
2023-09-21T22:31:14.201Z,92781.00
2023-09-21T22:33:41.414Z,92790.84
2023-09-21T22:36:08.293Z,92780.00
2023-09-21T22:38:35.137Z,92787.38
2023-09-21T22:41:01.950Z,92790.91
2023-09-21T22:43:28.813Z,92778.16
2023-09-21T22:46:00.676Z,92770.84
2023-09-21T22:48:27.355Z,92767.47
2023-09-21T22:51:00.388Z,92774.63
2023-09-21T22:53:29.543Z,92769.13
2023-09-21T22:56:01.250Z,92773.91
2023-09-21T22:58:29.106Z,92768.31
2023-09-21T23:00:59.827Z,92759.53
2023-09-21T23:03:27.042Z,92754.19
2023-09-21T23:05:54.233Z,92758.63
2023-09-21T23:08:22.506Z,92755.72
2023-09-21T23:10:50.180Z,92759.09
2023-09-21T23:13:19.844Z,92768.03
2023-09-21T23:15:47.417Z,92764.44
2023-09-21T23:18:14.899Z,92767.47
2023-09-21T23:20:41.839Z,92774.31
2023-09-21T23:23:08.685Z,92777.72
2023-09-21T23:25:35.436Z,92775.16
2023-09-21T23:28:04.578Z,92779.31
2023-09-21T23:30:31.733Z,92783.31
2023-09-21T23:32:58.677Z,92785.75
2023-09-21T23:35:25.757Z,92803.03
2023-09-21T23:37:52.520Z,92793.69
2023-09-21T23:40:21.036Z,92799.22
2023-09-21T23:42:47.903Z,92802.72
2023-09-21T23:45:15.187Z,92793.09
2023-09-21T23:47:43.038Z,92793.69
2023-09-21T23:50:12.974Z,92793.69
2023-09-21T23:52:41.013Z,92788.66
2023-09-21T23:55:10.981Z,92786.31
2023-09-21T23:57:38.671Z,92776.97
